Flight Track Log - Related Links

Times and Time Zones

All times are in EDT time to prevent confusion due to time zone crossing. See the EJM77 flight status page for this flight to view local times or setup timezone preferences in your user account.

Time Position Orientation Groundspeed Altitude Reporting Facility
EDT Latitude Longitude Course Direction KTS MPH feet Rate Location/Type
Fri 01:29:56 PM 29.6297 -95.2969 195° South 189 217 700  Level Houston Center
Fri 01:30:27 PM 29.6114 -95.3028 195° South 229 264 1,600 2,354 Climbing Houston Center
Fri 01:31:15 PM 29.6131 -95.2508 88° East 240 276 3,800 2,274 Climbing Houston Center
Fri 01:32:31 PM 29.6928 -95.2653 351° North 267 307 6,300 2,759 Climbing Houston Center
Fri 01:33:32 PM 29.7833 -95.2708 357° North 271 312 10,100 2,927 Climbing Houston Center
Fri 01:34:34 PM 29.8578 -95.2858 350° North 281 323 12,300 1,887 Climbing Houston Center
Fri 01:35:36 PM 29.9325 -95.3297 333° Northwest 299 344 14,000 1,694 Climbing Houston Center
Fri 01:36:38 PM 30.0142 -95.3733 335° Northwest 318 366 15,800 1,742 Climbing Houston Center
Fri 01:37:40 PM 30.1000 -95.4192 335° Northwest 336 387 17,600 1,645 Climbing Houston Center
Fri 01:38:42 PM 30.1872 -95.4664 335° Northwest 344 396 19,200 1,645 Climbing Houston Center
Fri 01:39:44 PM 30.2750 -95.5139 335° Northwest 346 398 21,000 1,887 Climbing Houston Center
Fri 01:40:46 PM 30.3800 -95.5697 335° Northwest 346 398 23,100 1,887 Climbing Houston Center
Fri 01:41:48 PM 30.4653 -95.6142 336° Northwest 337 388 24,900 1,548 Climbing Houston Center
Fri 01:42:50 PM 30.5494 -95.6603 335° Northwest 336 387 26,300 1,306 Climbing Houston Center
Fri 01:43:52 PM 30.6403 -95.7064 336° Northwest 348 400 27,600 1,210 Climbing Houston Center
Fri 01:44:54 PM 30.7264 -95.7553 334° Northwest 346 398 28,800 1,306 Climbing Houston Center
Fri 01:45:56 PM 30.8339 -95.8128 335° Northwest 350 403 30,300 1,306 Climbing Houston Center
Fri 01:46:58 PM 30.9264 -95.8625 335° Northwest 359 413 31,500 1,161 Climbing Houston Center
Fri 01:48:00 PM 31.0192 -95.9111 336° Northwest 362 417 32,700 1,113 Climbing Houston Center
Fri 01:49:02 PM 31.1122 -95.9603 336° Northwest 364 419 33,800 1,016 Climbing Houston Center
Fri 01:50:04 PM 31.2114 -95.9886 346° North 369 425 34,800 968 Climbing Houston Center
Fri 01:51:06 PM 31.3161 -95.9867 North 374 430 35,800 823 Climbing Houston Center
Fri 01:52:08 PM 31.4194 -95.9831 North 372 428 36,500 629 Climbing Houston Center
Fri 01:53:10 PM 31.5475 -95.9792 North 380 437 37,100 528 Climbing Houston Center
Fri 01:54:13 PM 31.6561 -95.9758 North 370 426 37,600 488 Climbing Fort Worth Center
Fri 01:55:13 PM 31.7689 -95.9742 North 386 444 38,100 450 Climbing Fort Worth Center
Fri 01:56:13 PM 31.8731 -95.9675 North 381 438 38,500 450 Climbing Fort Worth Center
Fri 01:57:13 PM 31.9797 -95.9683 360° North 381 438 39,000 250 Climbing Fort Worth Center
Fri 01:58:13 PM 32.0881 -95.9642 North 376 433 39,000  Level Fort Worth Center
Fri 01:59:13 PM 32.1986 -95.9625 North 382 440 39,000  Level Fort Worth Center
Fri 02:00:13 PM 32.3094 -95.9583 North 387 445 39,000  Level Fort Worth Center
Fri 02:01:13 PM 32.4219 -95.9539 North 392 451 39,000  Level Fort Worth Center
Fri 02:02:13 PM 32.5369 -95.9522 North 398 458 39,000  Level Fort Worth Center
Fri 02:03:13 PM 32.6517 -95.9503 North 404 465 39,000  Level Fort Worth Center
Fri 02:04:13 PM 32.7644 -95.9483 North 404 465 39,000  Level Fort Worth Center
Fri 02:05:13 PM 32.8792 -95.9442 North 404 465 39,000  Level Fort Worth Center
Fri 02:06:13 PM 32.9939 -95.9397 North 404 465 39,000  Level Fort Worth Center
Fri 02:07:13 PM 33.1108 -95.9353 North 404 465 39,000  Level Fort Worth Center
Fri 02:08:13 PM 33.2256 -95.9333 North 404 465 39,000  Level Fort Worth Center
Fri 02:09:13 PM 33.3422 -95.9289 North 404 465 39,000  Level Fort Worth Center
Fri 02:10:13 PM 33.4572 -95.9269 North 404 465 39,000  Level Fort Worth Center
Fri 02:11:13 PM 33.5781 -95.9225 North 416 479 39,000  Level Fort Worth Center
Fri 02:12:13 PM 33.6928 -95.9181 North 416 479 39,000  Level Fort Worth Center
Fri 02:13:13 PM 33.8136 -95.8986 North 421 484 39,000  Level Fort Worth Center
Fri 02:14:13 PM 33.9300 -95.8614 15° North 426 490 39,000  Level Fort Worth Center
Fri 02:15:13 PM 34.0486 -95.8267 14° North 431 496 39,000  Level Fort Worth Center
Fri 02:16:13 PM 34.1631 -95.7944 13° North 426 490 39,000  Level Fort Worth Center
Fri 02:17:13 PM 34.2814 -95.7572 15° North 426 490 39,000  Level Fort Worth Center
Fri 02:18:13 PM 34.3978 -95.7247 13° North 431 496 39,000  Level Fort Worth Center
Fri 02:19:13 PM 34.5183 -95.6869 14° North 431 496 39,000  Level Fort Worth Center
Fri 02:20:13 PM 34.6367 -95.6494 15° North 431 496 39,000  Level Fort Worth Center
Fri 02:21:13 PM 34.7572 -95.6139 14° North 431 496 39,000  Level Fort Worth Center
Fri 02:23:35 PM 35.0256 -95.5300 14° North 441 507 39,000  Level Kansas City Center
Fri 02:24:37 PM 35.1433 -95.4933 14° North 437 503 39,000  Level Kansas City Center
Fri 02:25:37 PM 35.2606 -95.4567 14° North 436 502 39,000  Level Kansas City Center
Fri 02:26:39 PM 35.3778 -95.4203 14° North 434 499 39,000  Level Kansas City Center
Fri 02:27:42 PM 35.5169 -95.3767 14° North 431 496 39,000  Level Kansas City Center
Fri 02:28:43 PM 35.6347 -95.3403 14° North 434 499 39,000  Level Kansas City Center
Fri 02:29:47 PM 35.7514 -95.3039 14° North 433 498 39,000  Level Kansas City Center
Fri 02:30:47 PM 35.8678 -95.2675 14° North 432 497 39,000  Level Kansas City Center
Fri 02:31:51 PM 35.9844 -95.2311 14° North 433 498 39,000  Level Kansas City Center
Fri 02:32:52 PM 36.1153 -95.1894 14° North 431 496 39,000  Level Kansas City Center
Fri 02:33:53 PM 36.2300 -95.1525 15° North 428 493 39,000  Level Kansas City Center
Fri 02:34:57 PM 36.3453 -95.1172 14° North 427 491 39,000  Level Kansas City Center
Fri 02:36:01 PM 36.4625 -95.0667 19° North 428 493 39,000  Level Kansas City Center
Fri 02:37:01 PM 36.5756 -95.0225 17° North 428 493 39,000  Level Kansas City Center
Fri 02:38:02 PM 36.7092 -94.9686 18° North 425 489 39,000  Level Kansas City Center
Fri 02:39:06 PM 36.8194 -94.9244 18° North 419 482 39,000  Level Kansas City Center
Fri 02:40:08 PM 36.9292 -94.8789 18° North 416 479 39,000  Level Kansas City Center
Fri 02:41:08 PM 37.0389 -94.8347 18° North 415 478 39,000  Level Kansas City Center
Fri 02:42:11 PM 37.1500 -94.7900 18° North 418 481 39,000  Level Kansas City Center
Fri 02:43:12 PM 37.2600 -94.7447 18° North 416 479 39,000  Level Kansas City Center
Fri 02:44:16 PM 37.3939 -94.6911 18° North 419 482 39,000  Level Kansas City Center
Fri 02:45:17 PM 37.5044 -94.6453 18° North 417 480 39,000  Level Kansas City Center
Fri 02:46:18 PM 37.6164 -94.6000 18° North 421 484 39,000  Level Kansas City Center
Fri 02:47:22 PM 37.7336 -94.5494 19° North 424 488 39,000  Level Kansas City Center
Fri 02:48:22 PM 37.8406 -94.5058 18° North 423 487 39,000  Level Kansas City Center
Fri 02:49:26 PM 37.9656 -94.4539 18° North 424 488 39,000  Level Kansas City Center
Fri 02:50:29 PM 38.0733 -94.4094 18° North 424 488 39,000  Level Kansas City Center
Fri 02:51:29 PM 38.1986 -94.3556 19° North 426 490 39,000  Level Kansas City Center
Fri 02:52:33 PM 38.3069 -94.3097 18° North 426 490 39,000  Level Kansas City Center
Fri 02:53:33 PM 38.4311 -94.2578 18° North 424 488 39,000  Level Kansas City Center
Fri 02:54:35 PM 38.5381 -94.2128 18° North 423 487 39,000  Level Kansas City Center
Fri 02:55:38 PM 38.6619 -94.1600 18° North 422 486 39,000  Level Kansas City Center
Fri 02:56:40 PM 38.7669 -94.1164 18° North 417 480 39,000  Level Kansas City Center
Fri 02:57:41 PM 38.8903 -94.0636 18° North 419 482 39,000  Level Kansas City Center
Fri 02:58:44 PM 38.9964 -94.0175 19° North 420 483 39,000  Level Kansas City Center
Fri 02:59:45 PM 39.1203 -93.9650 18° North 420 483 39,000  Level Kansas City Center
Fri 03:00:48 PM 39.2261 -93.9183 19° North 420 483 39,000  Level Kansas City Center
Fri 03:01:50 PM 39.3497 -93.8653 18° North 419 482 39,000  Level Kansas City Center
Fri 03:02:53 PM 39.4561 -93.8189 19° North 421 484 39,000  Level Kansas City Center
Fri 03:03:55 PM 39.5806 -93.7647 19° North 423 487 39,000  Level Kansas City Center
Fri 03:04:56 PM 39.6819 -93.7200 19° North 423 487 39,000  Level Kansas City Center
Fri 03:05:59 PM 39.7936 -93.6708 19° North 424 488 39,000  Level Kansas City Center
Fri 03:07:00 PM 39.9044 -93.6217 19° North 425 489 39,000  Level Kansas City Center
Fri 03:08:03 PM 40.0381 -93.5628 19° North 423 487 39,000  Level Kansas City Center
Fri 03:09:05 PM 40.1486 -93.5144 18° North 422 486 39,000  Level Kansas City Center
Fri 03:10:06 PM 40.2567 -93.4644 19° North 417 480 39,000  Level Kansas City Center
Fri 03:11:08 PM 40.3669 -93.4161 18° North 417 480 39,000  Level Kansas City Center
Fri 03:12:11 PM 40.4769 -93.3669 19° North 418 481 39,000  Level Kansas City Center
Fri 03:13:12 PM 40.5867 -93.3169 19° North 419 482 39,000  Level Kansas City Center
Fri 03:14:01 PM 40.6961 -93.2672 19° North 415 478 39,000  Level Chicago Center
Fri 03:15:03 PM 40.8058 -93.2178 19° North 417 480 39,000  Level Chicago Center
Fri 03:16:05 PM 40.9136 -93.1683 19° North 413 475 39,000  Level Chicago Center
Fri 03:17:07 PM 41.0239 -93.1183 19° North 416 479 39,000  Level Chicago Center
Fri 03:18:09 PM 41.1322 -93.0692 19° North 416 479 39,000  Level Chicago Center
Fri 03:19:10 PM 41.2422 -93.0194 19° North 416 479 39,000  Level Minneapolis Center
Fri 03:20:12 PM 41.3733 -92.9589 19° North 418 481 39,000  Level Minneapolis Center
Fri 03:21:14 PM 41.4817 -92.9067 20° North 417 480 39,000  Level Minneapolis Center
Fri 03:22:16 PM 41.5906 -92.8586 18° North 416 479 39,000  Level Minneapolis Center
Fri 03:23:18 PM 41.6978 -92.8072 20° North 413 475 39,000  Level Minneapolis Center
Fri 03:24:20 PM 41.8239 -92.7481 19° North 410 472 39,000  Level Minneapolis Center
Fri 03:25:22 PM 41.9322 -92.6958 20° North 413 475 39,000 -95 Level Minneapolis Center
Fri 03:26:26 PM 42.0392 -92.6467 19° North 412 474 38,800 -1,238 Descending Chicago Center
Fri 03:27:28 PM 42.1425 -92.5972 20° North 401 461 36,400 -2,710 Descending Chicago Center
Fri 03:28:30 PM 42.2683 -92.5375 19° North 402 463 33,200 -1,645 Descending Chicago Center
Fri 03:29:32 PM 42.3747 -92.4850 20° North 405 466 33,000 -240 Descending Chicago Center
Fri 03:30:35 PM 42.4903 -92.4492 13° North 423 487 32,700 -480 Descending Chicago Center
Fri 03:31:37 PM 42.6058 -92.4681 353° North 419 482 32,000 -339 Descending Chicago Center
Fri 03:32:39 PM 42.7114 -92.5389 334° Northwest 423 487 32,000  Level Chicago Center
Fri 03:33:41 PM 42.8114 -92.6336 325° Northwest 437 503 32,000  Level Chicago Center
Fri 03:34:41 PM 42.9097 -92.7258 326° Northwest 431 496 32,000  Level Minneapolis Center
Fri 03:35:43 PM 43.0289 -92.8358 326° Northwest 432 497 32,000 -145 Level Minneapolis Center
Fri 03:36:45 PM 43.1269 -92.9283 325° Northwest 431 496 31,700 -1,152 Descending Minneapolis Center
Fri 03:37:48 PM 43.2247 -93.0194 326° Northwest 429 494 29,600 -2,112 Descending Minneapolis Center
Fri 03:38:50 PM 43.3214 -93.1078 326° Northwest 422 486 27,300 -2,371 Descending Minneapolis Center
Fri 03:39:52 PM 43.4236 -93.1683 337° Northwest 405 466 24,700 -2,710 Descending Minneapolis Center
Fri 03:40:54 PM 43.5578 -93.1822 356° North 401 461 21,700 -2,758 Descending Minneapolis Center
Fri 03:41:56 PM 43.6689 -93.1881 358° North 399 459 19,000 -2,419 Descending Minneapolis Center
Fri 03:42:58 PM 43.7783 -93.1947 357° North 396 456 16,700 -2,371 Descending Minneapolis Center
Fri 03:44:00 PM 43.8842 -93.2011 358° North 387 445 14,100 -2,516 Descending Minneapolis Center
Fri 03:45:02 PM 43.9894 -93.2061 358° North 381 438 11,500 -1,984 Descending Minneapolis Center
Fri 03:46:04 PM 44.1125 -93.2144 357° North 372 428 10,000 -726 Descending Minneapolis Center
Fri 03:47:06 PM 44.2183 -93.2208 358° North 379 436 10,000  Level Minneapolis Center
Fri 03:48:09 PM 44.3233 -93.2133 North 380 437 10,000  Level Minneapolis Center
Fri 03:49:11 PM 44.4297 -93.2019 North 383 441 10,000  Level Minneapolis Center
Fri 03:50:13 PM 44.5361 -93.1917 North 383 441 10,000  Level Minneapolis Center
Fri 03:51:15 PM 44.6408 -93.1967 358° North 377 434 10,000 -97 Level Minneapolis Center
Fri 03:52:17 PM 44.7542 -93.2583 339° North 356 410 9,800 -677 Descending Minneapolis Center
Fri 03:53:19 PM 44.8133 -93.2992 334° Northwest 294 338 8,600 -1,742 Descending Minneapolis Center
Fri 03:54:21 PM 44.8667 -93.4064 305° West 280 322 6,200 -1,839 Descending Minneapolis Center
Fri 03:55:23 PM 44.9139 -93.4614 320° Northwest 231 266 4,800 -1,355 Descending Minneapolis Center
Fri 03:56:25 PM 44.9389 -93.3956 62° Northeast 204 235 3,400 -1,258 Descending Minneapolis Center
Fri 03:57:27 PM 44.9253 -93.3203 104° East 194 223 2,200 -1,008 Descending Minneapolis Center
Fri 03:58:30 PM 44.9008 -93.2653 122° Southeast 166 191 1,300 -857 Descending Minneapolis Center
Fri 04:00:00 PM 44.8820 -93.2218 35° Northeast  Level Estimated
Fri 04:07:00 PM 44.8820 -93.2218 35° Northeast  Level Estimated

Login

Don't have an account? Register now (free) for customized features, flight alerts, and more!